sensor_id;sensor_type;location;lat;lon;timestamp;P1;durP1;ratioP1;P2;durP2;ratioP2
71413;SDS011;59226;53.212;5.728;2023-03-01T00:00:49;10.77;;;2.13;;
71413;SDS011;59226;53.212;5.728;2023-03-01T00:03:15;3.00;;;1.40;;
71413;SDS011;59226;53.212;5.728;2023-03-01T00:05:43;1.93;;;1.00;;
71413;SDS011;59226;53.212;5.728;2023-03-01T00:08:09;2.88;;;1.08;;
71413;SDS011;59226;53.212;5.728;2023-03-01T00:10:34;0.63;;;0.40;;
71413;SDS011;59226;53.212;5.728;2023-03-01T00:12:59;3.53;;;1.47;;
71413;SDS011;59226;53.212;5.728;2023-03-01T00:15:24;4.13;;;1.37;;
71413;SDS011;59226;53.212;5.728;2023-03-01T00:17:49;2.10;;;0.80;;
71413;SDS011;59226;53.212;5.728;2023-03-01T00:20:15;2.47;;;1.40;;
71413;SDS011;59226;53.212;5.728;2023-03-01T00:22:40;1.53;;;0.83;;
71413;SDS011;59226;53.212;5.728;2023-03-01T00:25:05;2.57;;;1.23;;
71413;SDS011;59226;53.212;5.728;2023-03-01T00:27:30;6.70;;;1.90;;
71413;SDS011;59226;53.212;5.728;2023-03-01T00:29:56;1.60;;;0.60;;
71413;SDS011;59226;53.212;5.728;2023-03-01T00:32:21;1.63;;;0.63;;
71413;SDS011;59226;53.212;5.728;2023-03-01T00:34:46;1.60;;;0.82;;
71413;SDS011;59226;53.212;5.728;2023-03-01T00:37:22;2.57;;;0.83;;
71413;SDS011;59226;53.212;5.728;2023-03-01T00:39:48;1.90;;;1.02;;
71413;SDS011;59226;53.212;5.728;2023-03-01T00:42:13;2.93;;;0.93;;
71413;SDS011;59226;53.212;5.728;2023-03-01T00:44:38;1.83;;;1.00;;
71413;SDS011;59226;53.212;5.728;2023-03-01T00:47:03;3.43;;;1.13;;
71413;SDS011;59226;53.212;5.728;2023-03-01T00:49:28;3.40;;;1.90;;
71413;SDS011;59226;53.212;5.728;2023-03-01T00:51:54;3.93;;;2.07;;
71413;SDS011;59226;53.212;5.728;2023-03-01T00:54:19;2.47;;;1.13;;
71413;SDS011;59226;53.212;5.728;2023-03-01T00:56:44;3.90;;;1.77;;
71413;SDS011;59226;53.212;5.728;2023-03-01T00:59:09;3.43;;;1.47;;
71413;SDS011;59226;53.212;5.728;2023-03-01T01:01:35;4.60;;;1.83;;
71413;SDS011;59226;53.212;5.728;2023-03-01T01:04:04;2.20;;;1.10;;
71413;SDS011;59226;53.212;5.728;2023-03-01T01:06:32;2.37;;;1.13;;
71413;SDS011;59226;53.212;5.728;2023-03-01T01:08:57;4.47;;;2.17;;
71413;SDS011;59226;53.212;5.728;2023-03-01T01:11:26;4.30;;;2.38;;
71413;SDS011;59226;53.212;5.728;2023-03-01T01:13:51;5.03;;;2.60;;
71413;SDS011;59226;53.212;5.728;2023-03-01T01:16:17;6.20;;;3.40;;
71413;SDS011;59226;53.212;5.728;2023-03-01T01:18:43;4.63;;;2.50;;
71413;SDS011;59226;53.212;5.728;2023-03-01T01:21:17;10.68;;;3.00;;
71413;SDS011;59226;53.212;5.728;2023-03-01T01:23:43;7.38;;;3.55;;
71413;SDS011;59226;53.212;5.728;2023-03-01T01:26:16;3.65;;;2.15;;
71413;SDS011;59226;53.212;5.728;2023-03-01T01:28:42;3.13;;;1.80;;
71413;SDS011;59226;53.212;5.728;2023-03-01T01:31:07;5.77;;;2.77;;
71413;SDS011;59226;53.212;5.728;2023-03-01T01:33:32;2.73;;;1.60;;
71413;SDS011;59226;53.212;5.728;2023-03-01T01:35:58;10.20;;;2.90;;
71413;SDS011;59226;53.212;5.728;2023-03-01T01:38:23;6.27;;;2.80;;
71413;SDS011;59226;53.212;5.728;2023-03-01T01:40:49;9.73;;;3.47;;
71413;SDS011;59226;53.212;5.728;2023-03-01T01:43:36;4.75;;;3.17;;
71413;SDS011;59226;53.212;5.728;2023-03-01T01:46:04;3.65;;;2.53;;
71413;SDS011;59226;53.212;5.728;2023-03-01T01:48:50;8.35;;;3.13;;
71413;SDS011;59226;53.212;5.728;2023-03-01T01:51:22;5.57;;;2.13;;
71413;SDS011;59226;53.212;5.728;2023-03-01T01:53:50;4.10;;;2.55;;
71413;SDS011;59226;53.212;5.728;2023-03-01T01:56:16;6.32;;;2.45;;
71413;SDS011;59226;53.212;5.728;2023-03-01T01:58:42;7.03;;;2.58;;
71413;SDS011;59226;53.212;5.728;2023-03-01T02:01:08;5.77;;;1.70;;
71413;SDS011;59226;53.212;5.728;2023-03-01T02:03:34;2.63;;;1.35;;
71413;SDS011;59226;53.212;5.728;2023-03-01T02:09:11;7.30;;;2.47;;
71413;SDS011;59226;53.212;5.728;2023-03-01T02:11:37;3.28;;;1.00;;
71413;SDS011;59226;53.212;5.728;2023-03-01T02:14:02;4.70;;;1.83;;
71413;SDS011;59226;53.212;5.728;2023-03-01T02:16:28;3.60;;;1.53;;
71413;SDS011;59226;53.212;5.728;2023-03-01T02:18:53;4.53;;;2.47;;
71413;SDS011;59226;53.212;5.728;2023-03-01T02:23:44;3.03;;;1.80;;
71413;SDS011;59226;53.212;5.728;2023-03-01T02:26:20;3.13;;;1.70;;
71413;SDS011;59226;53.212;5.728;2023-03-01T02:28:45;4.25;;;2.22;;
71413;SDS011;59226;53.212;5.728;2023-03-01T02:31:14;3.58;;;1.55;;
71413;SDS011;59226;53.212;5.728;2023-03-01T02:33:58;3.13;;;1.10;;
71413;SDS011;59226;53.212;5.728;2023-03-01T02:36:24;4.20;;;2.45;;
71413;SDS011;59226;53.212;5.728;2023-03-01T02:38:51;3.50;;;1.30;;
71413;SDS011;59226;53.212;5.728;2023-03-01T02:41:17;2.23;;;1.07;;
71413;SDS011;59226;53.212;5.728;2023-03-01T02:43:44;2.90;;;1.13;;
71413;SDS011;59226;53.212;5.728;2023-03-01T02:46:23;3.30;;;1.53;;
71413;SDS011;59226;53.212;5.728;2023-03-01T02:48:50;0.55;;;0.40;;
71413;SDS011;59226;53.212;5.728;2023-03-01T02:51:22;3.42;;;1.25;;
71413;SDS011;59226;53.212;5.728;2023-03-01T02:56:16;1.70;;;1.03;;
71413;SDS011;59226;53.212;5.728;2023-03-01T02:58:41;0.43;;;0.30;;
71413;SDS011;59226;53.212;5.728;2023-03-01T03:01:10;3.03;;;1.15;;
71413;SDS011;59226;53.212;5.728;2023-03-01T03:03:35;1.43;;;1.03;;
71413;SDS011;59226;53.212;5.728;2023-03-01T03:06:00;5.80;;;1.57;;
71413;SDS011;59226;53.212;5.728;2023-03-01T03:08:26;5.13;;;1.33;;
71413;SDS011;59226;53.212;5.728;2023-03-01T03:10:51;2.33;;;0.87;;
71413;SDS011;59226;53.212;5.728;2023-03-01T03:13:16;1.40;;;0.77;;
71413;SDS011;59226;53.212;5.728;2023-03-01T03:15:42;1.43;;;0.73;;
71413;SDS011;59226;53.212;5.728;2023-03-01T03:18:09;2.08;;;0.82;;
71413;SDS011;59226;53.212;5.728;2023-03-01T03:20:34;2.17;;;1.30;;
71413;SDS011;59226;53.212;5.728;2023-03-01T03:22:59;1.47;;;0.50;;
71413;SDS011;59226;53.212;5.728;2023-03-01T03:25:25;2.47;;;0.80;;
71413;SDS011;59226;53.212;5.728;2023-03-01T03:27:51;2.40;;;0.95;;
71413;SDS011;59226;53.212;5.728;2023-03-01T03:30:24;4.95;;;1.60;;
71413;SDS011;59226;53.212;5.728;2023-03-01T03:32:50;2.47;;;1.30;;
71413;SDS011;59226;53.212;5.728;2023-03-01T03:35:19;2.10;;;1.45;;
71413;SDS011;59226;53.212;5.728;2023-03-01T03:37:45;2.25;;;1.23;;
71413;SDS011;59226;53.212;5.728;2023-03-01T03:40:38;3.55;;;1.75;;
71413;SDS011;59226;53.212;5.728;2023-03-01T03:43:04;1.95;;;0.95;;
71413;SDS011;59226;53.212;5.728;2023-03-01T03:45:30;3.70;;;1.23;;
71413;SDS011;59226;53.212;5.728;2023-03-01T03:47:58;3.17;;;1.27;;
71413;SDS011;59226;53.212;5.728;2023-03-01T03:50:23;4.00;;;2.20;;
71413;SDS011;59226;53.212;5.728;2023-03-01T03:52:48;5.90;;;1.87;;
71413;SDS011;59226;53.212;5.728;2023-03-01T03:55:13;0.80;;;0.53;;
71413;SDS011;59226;53.212;5.728;2023-03-01T03:57:39;2.43;;;0.80;;
71413;SDS011;59226;53.212;5.728;2023-03-01T04:00:06;1.98;;;0.88;;
71413;SDS011;59226;53.212;5.728;2023-03-01T04:02:37;7.60;;;2.25;;
71413;SDS011;59226;53.212;5.728;2023-03-01T04:05:03;4.00;;;1.73;;
71413;SDS011;59226;53.212;5.728;2023-03-01T04:07:28;4.67;;;2.20;;
71413;SDS011;59226;53.212;5.728;2023-03-01T04:09:53;3.20;;;1.70;;
71413;SDS011;59226;53.212;5.728;2023-03-01T04:12:18;5.00;;;1.07;;
71413;SDS011;59226;53.212;5.728;2023-03-01T04:14:47;2.05;;;1.00;;
71413;SDS011;59226;53.212;5.728;2023-03-01T04:17:13;5.63;;;1.40;;
71413;SDS011;59226;53.212;5.728;2023-03-01T04:19:38;6.93;;;1.70;;
71413;SDS011;59226;53.212;5.728;2023-03-01T04:22:03;4.07;;;1.87;;
71413;SDS011;59226;53.212;5.728;2023-03-01T04:24:34;5.28;;;1.27;;
71413;SDS011;59226;53.212;5.728;2023-03-01T04:26:59;2.60;;;1.23;;
71413;SDS011;59226;53.212;5.728;2023-03-01T04:29:24;5.43;;;1.57;;
71413;SDS011;59226;53.212;5.728;2023-03-01T04:31:49;1.93;;;0.97;;
71413;SDS011;59226;53.212;5.728;2023-03-01T04:34:15;3.37;;;1.30;;
71413;SDS011;59226;53.212;5.728;2023-03-01T04:36:40;2.67;;;1.30;;
71413;SDS011;59226;53.212;5.728;2023-03-01T04:39:05;2.73;;;1.43;;
71413;SDS011;59226;53.212;5.728;2023-03-01T04:41:37;2.15;;;0.82;;
71413;SDS011;59226;53.212;5.728;2023-03-01T04:44:03;2.42;;;1.00;;
71413;SDS011;59226;53.212;5.728;2023-03-01T04:46:29;3.00;;;1.20;;
71413;SDS011;59226;53.212;5.728;2023-03-01T04:48:54;1.80;;;1.15;;
71413;SDS011;59226;53.212;5.728;2023-03-01T04:51:20;2.70;;;1.00;;
71413;SDS011;59226;53.212;5.728;2023-03-01T04:53:45;2.13;;;0.80;;
71413;SDS011;59226;53.212;5.728;2023-03-01T04:56:11;3.60;;;1.60;;
71413;SDS011;59226;53.212;5.728;2023-03-01T04:58:36;2.53;;;1.17;;
71413;SDS011;59226;53.212;5.728;2023-03-01T05:01:01;3.07;;;1.77;;
71413;SDS011;59226;53.212;5.728;2023-03-01T05:03:40;3.87;;;1.90;;
71413;SDS011;59226;53.212;5.728;2023-03-01T05:06:05;5.22;;;1.90;;
71413;SDS011;59226;53.212;5.728;2023-03-01T05:08:30;3.87;;;2.00;;
71413;SDS011;59226;53.212;5.728;2023-03-01T05:10:59;2.87;;;1.63;;
71413;SDS011;59226;53.212;5.728;2023-03-01T05:13:24;3.33;;;1.03;;
71413;SDS011;59226;53.212;5.728;2023-03-01T05:15:56;1.33;;;0.87;;
71413;SDS011;59226;53.212;5.728;2023-03-01T05:18:22;2.50;;;1.42;;
71413;SDS011;59226;53.212;5.728;2023-03-01T05:20:51;1.35;;;0.82;;
71413;SDS011;59226;53.212;5.728;2023-03-01T05:23:16;2.38;;;1.13;;
71413;SDS011;59226;53.212;5.728;2023-03-01T05:25:43;1.40;;;0.82;;
71413;SDS011;59226;53.212;5.728;2023-03-01T05:28:10;1.47;;;0.73;;
71413;SDS011;59226;53.212;5.728;2023-03-01T05:30:36;4.72;;;1.35;;
71413;SDS011;59226;53.212;5.728;2023-03-01T05:33:03;3.35;;;1.27;;
71413;SDS011;59226;53.212;5.728;2023-03-01T05:35:29;3.93;;;1.47;;
71413;SDS011;59226;53.212;5.728;2023-03-01T05:37:54;2.90;;;1.60;;
71413;SDS011;59226;53.212;5.728;2023-03-01T05:40:20;4.53;;;1.60;;
71413;SDS011;59226;53.212;5.728;2023-03-01T05:42:47;2.60;;;1.10;;
71413;SDS011;59226;53.212;5.728;2023-03-01T05:45:13;3.47;;;0.73;;
71413;SDS011;59226;53.212;5.728;2023-03-01T05:47:39;4.83;;;1.50;;
71413;SDS011;59226;53.212;5.728;2023-03-01T05:50:09;1.42;;;0.75;;
71413;SDS011;59226;53.212;5.728;2023-03-01T05:52:34;3.08;;;1.05;;
71413;SDS011;59226;53.212;5.728;2023-03-01T05:54:59;2.37;;;1.23;;
71413;SDS011;59226;53.212;5.728;2023-03-01T05:57:24;2.27;;;1.40;;
71413;SDS011;59226;53.212;5.728;2023-03-01T05:59:50;2.78;;;1.23;;
71413;SDS011;59226;53.212;5.728;2023-03-01T06:02:16;1.67;;;0.77;;
71413;SDS011;59226;53.212;5.728;2023-03-01T06:04:41;3.37;;;1.13;;
71413;SDS011;59226;53.212;5.728;2023-03-01T06:07:06;2.60;;;0.67;;
71413;SDS011;59226;53.212;5.728;2023-03-01T06:09:31;2.40;;;1.40;;
71413;SDS011;59226;53.212;5.728;2023-03-01T06:11:56;0.60;;;0.50;;
71413;SDS011;59226;53.212;5.728;2023-03-01T06:14:22;1.40;;;0.50;;
71413;SDS011;59226;53.212;5.728;2023-03-01T06:16:47;2.47;;;1.17;;
71413;SDS011;59226;53.212;5.728;2023-03-01T06:19:12;2.57;;;1.03;;
71413;SDS011;59226;53.212;5.728;2023-03-01T06:21:37;2.07;;;1.00;;
71413;SDS011;59226;53.212;5.728;2023-03-01T06:24:03;1.37;;;1.10;;
71413;SDS011;59226;53.212;5.728;2023-03-01T06:26:28;1.53;;;0.60;;
71413;SDS011;59226;53.212;5.728;2023-03-01T06:28:53;2.93;;;0.83;;
71413;SDS011;59226;53.212;5.728;2023-03-01T06:31:18;0.67;;;0.43;;
71413;SDS011;59226;53.212;5.728;2023-03-01T06:33:44;4.20;;;1.90;;
71413;SDS011;59226;53.212;5.728;2023-03-01T06:36:09;2.03;;;0.38;;
71413;SDS011;59226;53.212;5.728;2023-03-01T06:38:35;1.10;;;0.70;;
71413;SDS011;59226;53.212;5.728;2023-03-01T06:41:00;5.50;;;1.47;;
71413;SDS011;59226;53.212;5.728;2023-03-01T06:43:26;1.05;;;0.68;;
71413;SDS011;59226;53.212;5.728;2023-03-01T06:45:51;0.87;;;0.80;;
71413;SDS011;59226;53.212;5.728;2023-03-01T06:48:16;3.63;;;1.47;;
71413;SDS011;59226;53.212;5.728;2023-03-01T06:50:41;2.40;;;1.07;;
71413;SDS011;59226;53.212;5.728;2023-03-01T06:53:07;0.67;;;0.50;;
71413;SDS011;59226;53.212;5.728;2023-03-01T06:55:32;1.07;;;0.70;;
71413;SDS011;59226;53.212;5.728;2023-03-01T06:57:58;1.77;;;0.97;;
71413;SDS011;59226;53.212;5.728;2023-03-01T07:00:24;2.05;;;1.20;;
71413;SDS011;59226;53.212;5.728;2023-03-01T07:02:49;1.67;;;0.82;;
71413;SDS011;59226;53.212;5.728;2023-03-01T07:05:15;3.27;;;1.80;;
71413;SDS011;59226;53.212;5.728;2023-03-01T07:07:40;3.40;;;0.83;;
71413;SDS011;59226;53.212;5.728;2023-03-01T07:10:05;6.60;;;1.83;;
71413;SDS011;59226;53.212;5.728;2023-03-01T07:12:32;2.63;;;1.47;;
71413;SDS011;59226;53.212;5.728;2023-03-01T07:14:57;2.20;;;0.80;;
71413;SDS011;59226;53.212;5.728;2023-03-01T07:17:22;2.90;;;1.30;;
71413;SDS011;59226;53.212;5.728;2023-03-01T07:19:47;1.77;;;1.23;;
71413;SDS011;59226;53.212;5.728;2023-03-01T07:22:13;7.77;;;2.60;;
71413;SDS011;59226;53.212;5.728;2023-03-01T07:24:38;1.10;;;0.73;;
71413;SDS011;59226;53.212;5.728;2023-03-01T07:27:03;1.97;;;1.23;;
71413;SDS011;59226;53.212;5.728;2023-03-01T07:29:28;2.33;;;1.10;;
71413;SDS011;59226;53.212;5.728;2023-03-01T07:31:54;2.50;;;1.43;;
71413;SDS011;59226;53.212;5.728;2023-03-01T07:34:19;1.63;;;1.10;;
71413;SDS011;59226;53.212;5.728;2023-03-01T07:36:44;2.13;;;1.37;;
71413;SDS011;59226;53.212;5.728;2023-03-01T07:39:10;2.00;;;1.27;;
71413;SDS011;59226;53.212;5.728;2023-03-01T07:41:36;5.10;;;1.48;;
71413;SDS011;59226;53.212;5.728;2023-03-01T07:44:01;2.50;;;1.10;;
71413;SDS011;59226;53.212;5.728;2023-03-01T07:46:26;1.10;;;0.80;;
71413;SDS011;59226;53.212;5.728;2023-03-01T07:48:51;2.00;;;1.03;;
71413;SDS011;59226;53.212;5.728;2023-03-01T07:51:16;2.20;;;0.90;;
71413;SDS011;59226;53.212;5.728;2023-03-01T07:53:42;2.03;;;0.90;;
71413;SDS011;59226;53.212;5.728;2023-03-01T07:56:08;1.43;;;0.70;;
71413;SDS011;59226;53.212;5.728;2023-03-01T07:58:34;2.28;;;0.88;;
71413;SDS011;59226;53.212;5.728;2023-03-01T08:01:02;2.87;;;1.27;;
71413;SDS011;59226;53.212;5.728;2023-03-01T08:03:27;3.45;;;1.63;;
71413;SDS011;59226;53.212;5.728;2023-03-01T08:05:53;2.40;;;1.27;;
71413;SDS011;59226;53.212;5.728;2023-03-01T08:08:18;1.60;;;0.90;;
71413;SDS011;59226;53.212;5.728;2023-03-01T08:10:43;2.47;;;0.87;;
71413;SDS011;59226;53.212;5.728;2023-03-01T08:13:08;2.47;;;1.30;;
71413;SDS011;59226;53.212;5.728;2023-03-01T08:15:33;2.30;;;1.37;;
71413;SDS011;59226;53.212;5.728;2023-03-01T08:17:59;1.53;;;1.00;;
71413;SDS011;59226;53.212;5.728;2023-03-01T08:20:24;3.97;;;1.37;;
71413;SDS011;59226;53.212;5.728;2023-03-01T08:22:49;2.10;;;1.00;;
71413;SDS011;59226;53.212;5.728;2023-03-01T08:25:14;3.37;;;1.80;;
71413;SDS011;59226;53.212;5.728;2023-03-01T08:27:39;2.83;;;1.63;;
71413;SDS011;59226;53.212;5.728;2023-03-01T08:30:05;5.53;;;1.63;;
71413;SDS011;59226;53.212;5.728;2023-03-01T08:32:34;2.92;;;1.27;;
71413;SDS011;59226;53.212;5.728;2023-03-01T08:35:00;5.00;;;1.80;;
71413;SDS011;59226;53.212;5.728;2023-03-01T08:37:25;2.93;;;1.73;;
71413;SDS011;59226;53.212;5.728;2023-03-01T08:39:50;3.13;;;1.23;;
71413;SDS011;59226;53.212;5.728;2023-03-01T08:42:16;5.17;;;2.63;;
71413;SDS011;59226;53.212;5.728;2023-03-01T08:44:41;5.43;;;2.47;;
71413;SDS011;59226;53.212;5.728;2023-03-01T08:47:06;2.77;;;1.70;;
71413;SDS011;59226;53.212;5.728;2023-03-01T08:49:31;5.10;;;2.13;;
71413;SDS011;59226;53.212;5.728;2023-03-01T08:51:57;5.10;;;2.20;;
71413;SDS011;59226;53.212;5.728;2023-03-01T08:54:22;7.67;;;2.67;;
71413;SDS011;59226;53.212;5.728;2023-03-01T08:56:48;3.87;;;2.20;;
71413;SDS011;59226;53.212;5.728;2023-03-01T08:59:14;5.43;;;1.80;;
71413;SDS011;59226;53.212;5.728;2023-03-01T09:01:40;6.95;;;3.22;;
71413;SDS011;59226;53.212;5.728;2023-03-01T09:04:08;10.38;;;4.03;;
71413;SDS011;59226;53.212;5.728;2023-03-01T09:06:34;5.70;;;2.90;;
71413;SDS011;59226;53.212;5.728;2023-03-01T09:08:59;11.20;;;4.72;;
71413;SDS011;59226;53.212;5.728;2023-03-01T09:11:25;7.87;;;3.53;;
71413;SDS011;59226;53.212;5.728;2023-03-01T09:13:50;8.07;;;4.60;;
71413;SDS011;59226;53.212;5.728;2023-03-01T09:16:17;4.90;;;2.93;;
71413;SDS011;59226;53.212;5.728;2023-03-01T09:18:43;5.88;;;3.40;;
71413;SDS011;59226;53.212;5.728;2023-03-01T09:21:15;5.22;;;2.53;;
71413;SDS011;59226;53.212;5.728;2023-03-01T09:23:41;6.73;;;4.10;;
71413;SDS011;59226;53.212;5.728;2023-03-01T09:26:11;6.05;;;2.72;;
71413;SDS011;59226;53.212;5.728;2023-03-01T09:28:37;5.80;;;3.05;;
71413;SDS011;59226;53.212;5.728;2023-03-01T09:31:02;11.17;;;5.23;;
71413;SDS011;59226;53.212;5.728;2023-03-01T09:33:29;13.23;;;4.30;;
71413;SDS011;59226;53.212;5.728;2023-03-01T09:36:02;7.47;;;3.42;;
71413;SDS011;59226;53.212;5.728;2023-03-01T09:38:28;5.87;;;2.80;;
71413;SDS011;59226;53.212;5.728;2023-03-01T09:40:53;5.85;;;3.35;;
71413;SDS011;59226;53.212;5.728;2023-03-01T09:43:21;11.80;;;3.47;;
71413;SDS011;59226;53.212;5.728;2023-03-01T09:45:48;6.32;;;2.38;;
71413;SDS011;59226;53.212;5.728;2023-03-01T09:48:16;10.00;;;3.73;;
71413;SDS011;59226;53.212;5.728;2023-03-01T09:50:42;7.78;;;4.22;;
71413;SDS011;59226;53.212;5.728;2023-03-01T09:53:13;7.40;;;3.63;;
71413;SDS011;59226;53.212;5.728;2023-03-01T09:55:43;6.82;;;2.67;;
71413;SDS011;59226;53.212;5.728;2023-03-01T10:00:47;7.87;;;3.53;;
71413;SDS011;59226;53.212;5.728;2023-03-01T10:11:13;9.15;;;4.30;;
71413;SDS011;59226;53.212;5.728;2023-03-01T10:13:46;6.80;;;3.40;;
71413;SDS011;59226;53.212;5.728;2023-03-01T10:16:26;6.57;;;3.47;;
71413;SDS011;59226;53.212;5.728;2023-03-01T10:18:54;5.93;;;2.88;;
71413;SDS011;59226;53.212;5.728;2023-03-01T10:21:20;7.70;;;3.38;;
71413;SDS011;59226;53.212;5.728;2023-03-01T10:23:46;5.03;;;3.00;;
71413;SDS011;59226;53.212;5.728;2023-03-01T10:31:11;5.97;;;3.25;;
71413;SDS011;59226;53.212;5.728;2023-03-01T10:33:37;9.02;;;3.50;;
71413;SDS011;59226;53.212;5.728;2023-03-01T10:36:04;9.30;;;3.90;;
71413;SDS011;59226;53.212;5.728;2023-03-01T10:38:30;9.57;;;4.30;;
71413;SDS011;59226;53.212;5.728;2023-03-01T10:43:24;8.38;;;4.28;;
71413;SDS011;59226;53.212;5.728;2023-03-01T10:45:50;7.25;;;3.53;;
71413;SDS011;59226;53.212;5.728;2023-03-01T10:50:51;7.50;;;3.10;;
71413;SDS011;59226;53.212;5.728;2023-03-01T10:53:33;5.68;;;2.65;;
71413;SDS011;59226;53.212;5.728;2023-03-01T10:58:23;8.43;;;3.80;;
71413;SDS011;59226;53.212;5.728;2023-03-01T11:00:50;7.07;;;3.50;;
71413;SDS011;59226;53.212;5.728;2023-03-01T11:03:18;7.50;;;3.90;;
71413;SDS011;59226;53.212;5.728;2023-03-01T11:05:54;5.45;;;2.28;;
71413;SDS011;59226;53.212;5.728;2023-03-01T11:08:34;10.43;;;3.45;;
71413;SDS011;59226;53.212;5.728;2023-03-01T11:13:34;7.13;;;3.22;;
71413;SDS011;59226;53.212;5.728;2023-03-01T11:16:00;7.37;;;3.43;;
71413;SDS011;59226;53.212;5.728;2023-03-01T11:18:26;4.53;;;2.17;;
71413;SDS011;59226;53.212;5.728;2023-03-01T11:20:52;7.77;;;3.13;;
71413;SDS011;59226;53.212;5.728;2023-03-01T11:23:18;5.15;;;2.55;;
71413;SDS011;59226;53.212;5.728;2023-03-01T11:25:46;8.33;;;3.07;;
71413;SDS011;59226;53.212;5.728;2023-03-01T11:28:16;8.43;;;3.55;;
71413;SDS011;59226;53.212;5.728;2023-03-01T11:36:26;5.28;;;2.50;;
71413;SDS011;59226;53.212;5.728;2023-03-01T11:38:53;6.90;;;2.90;;
71413;SDS011;59226;53.212;5.728;2023-03-01T11:41:20;5.55;;;3.20;;
71413;SDS011;59226;53.212;5.728;2023-03-01T11:43:57;6.85;;;2.92;;
71413;SDS011;59226;53.212;5.728;2023-03-01T11:51:34;6.70;;;2.35;;
71413;SDS011;59226;53.212;5.728;2023-03-01T11:56:50;4.80;;;2.80;;
71413;SDS011;59226;53.212;5.728;2023-03-01T12:04:32;9.70;;;4.17;;
71413;SDS011;59226;53.212;5.728;2023-03-01T12:22:28;7.18;;;3.63;;
71413;SDS011;59226;53.212;5.728;2023-03-01T12:30:15;7.95;;;3.50;;
71413;SDS011;59226;53.212;5.728;2023-03-01T12:32:45;9.43;;;3.10;;
71413;SDS011;59226;53.212;5.728;2023-03-01T12:38:18;6.72;;;3.25;;
71413;SDS011;59226;53.212;5.728;2023-03-01T12:41:01;5.13;;;2.57;;
71413;SDS011;59226;53.212;5.728;2023-03-01T12:43:44;2.72;;;1.45;;
71413;SDS011;59226;53.212;5.728;2023-03-01T12:51:19;11.95;;;4.13;;
71413;SDS011;59226;53.212;5.728;2023-03-01T12:53:50;11.17;;;3.33;;
71413;SDS011;59226;53.212;5.728;2023-03-01T12:56:20;7.90;;;3.45;;
71413;SDS011;59226;53.212;5.728;2023-03-01T13:01:16;7.47;;;2.83;;
71413;SDS011;59226;53.212;5.728;2023-03-01T13:06:19;7.13;;;3.40;;
71413;SDS011;59226;53.212;5.728;2023-03-01T13:09:35;7.25;;;2.78;;
71413;SDS011;59226;53.212;5.728;2023-03-01T13:11:33;8.18;;;3.20;;
71413;SDS011;59226;53.212;5.728;2023-03-01T13:16:43;8.57;;;3.63;;
71413;SDS011;59226;53.212;5.728;2023-03-01T13:19:12;10.18;;;3.83;;
71413;SDS011;59226;53.212;5.728;2023-03-01T13:21:39;9.07;;;3.30;;
71413;SDS011;59226;53.212;5.728;2023-03-01T13:24:04;5.67;;;2.67;;
71413;SDS011;59226;53.212;5.728;2023-03-01T13:29:44;6.90;;;3.27;;
71413;SDS011;59226;53.212;5.728;2023-03-01T13:32:29;8.82;;;4.15;;
71413;SDS011;59226;53.212;5.728;2023-03-01T13:34:58;6.72;;;3.33;;
71413;SDS011;59226;53.212;5.728;2023-03-01T13:37:25;7.72;;;3.83;;
71413;SDS011;59226;53.212;5.728;2023-03-01T13:39:51;10.32;;;2.70;;
71413;SDS011;59226;53.212;5.728;2023-03-01T13:42:31;10.40;;;3.70;;
71413;SDS011;59226;53.212;5.728;2023-03-01T13:44:57;6.47;;;3.10;;
71413;SDS011;59226;53.212;5.728;2023-03-01T13:47:22;6.13;;;3.43;;
71413;SDS011;59226;53.212;5.728;2023-03-01T13:54:50;6.00;;;2.70;;
71413;SDS011;59226;53.212;5.728;2023-03-01T13:57:18;6.80;;;2.67;;
71413;SDS011;59226;53.212;5.728;2023-03-01T13:59:48;7.07;;;3.00;;
71413;SDS011;59226;53.212;5.728;2023-03-01T14:02:13;7.00;;;3.67;;
71413;SDS011;59226;53.212;5.728;2023-03-01T14:04:39;10.30;;;4.87;;
71413;SDS011;59226;53.212;5.728;2023-03-01T14:07:18;7.55;;;3.05;;
71413;SDS011;59226;53.212;5.728;2023-03-01T14:09:44;9.93;;;4.03;;
71413;SDS011;59226;53.212;5.728;2023-03-01T14:14:44;6.95;;;3.35;;
71413;SDS011;59226;53.212;5.728;2023-03-01T14:17:15;6.70;;;2.88;;
71413;SDS011;59226;53.212;5.728;2023-03-01T14:19:44;6.22;;;2.80;;
71413;SDS011;59226;53.212;5.728;2023-03-01T14:24:36;7.60;;;3.50;;
71413;SDS011;59226;53.212;5.728;2023-03-01T14:27:03;9.67;;;3.57;;
71413;SDS011;59226;53.212;5.728;2023-03-01T14:29:35;7.37;;;3.60;;
71413;SDS011;59226;53.212;5.728;2023-03-01T14:34:46;7.88;;;3.40;;
71413;SDS011;59226;53.212;5.728;2023-03-01T14:37:25;7.07;;;3.10;;
71413;SDS011;59226;53.212;5.728;2023-03-01T14:39:51;7.72;;;2.92;;
71413;SDS011;59226;53.212;5.728;2023-03-01T14:42:17;9.43;;;3.50;;
71413;SDS011;59226;53.212;5.728;2023-03-01T14:44:43;6.93;;;3.35;;
71413;SDS011;59226;53.212;5.728;2023-03-01T14:47:11;7.78;;;2.72;;
71413;SDS011;59226;53.212;5.728;2023-03-01T14:49:38;5.53;;;2.53;;
71413;SDS011;59226;53.212;5.728;2023-03-01T14:52:04;7.30;;;2.80;;
71413;SDS011;59226;53.212;5.728;2023-03-01T14:54:38;7.30;;;2.92;;
71413;SDS011;59226;53.212;5.728;2023-03-01T14:57:05;6.53;;;2.50;;
71413;SDS011;59226;53.212;5.728;2023-03-01T14:59:32;7.10;;;3.00;;
71413;SDS011;59226;53.212;5.728;2023-03-01T15:01:58;8.80;;;3.37;;
71413;SDS011;59226;53.212;5.728;2023-03-01T15:04:24;7.05;;;3.20;;
71413;SDS011;59226;53.212;5.728;2023-03-01T15:06:51;7.30;;;3.35;;
71413;SDS011;59226;53.212;5.728;2023-03-01T15:09:16;9.27;;;3.92;;
71413;SDS011;59226;53.212;5.728;2023-03-01T15:11:42;3.10;;;1.63;;
71413;SDS011;59226;53.212;5.728;2023-03-01T15:16:53;7.80;;;2.78;;
71413;SDS011;59226;53.212;5.728;2023-03-01T15:19:18;12.77;;;2.60;;
71413;SDS011;59226;53.212;5.728;2023-03-01T15:21:44;4.93;;;2.77;;
71413;SDS011;59226;53.212;5.728;2023-03-01T15:26:44;4.53;;;2.03;;
71413;SDS011;59226;53.212;5.728;2023-03-01T15:29:18;7.18;;;2.60;;
71413;SDS011;59226;53.212;5.728;2023-03-01T15:31:50;9.75;;;3.13;;
71413;SDS011;59226;53.212;5.728;2023-03-01T15:34:52;7.07;;;2.17;;
71413;SDS011;59226;53.212;5.728;2023-03-01T15:37:35;6.90;;;3.00;;
71413;SDS011;59226;53.212;5.728;2023-03-01T15:39:56;4.55;;;1.67;;
71413;SDS011;59226;53.212;5.728;2023-03-01T15:47:38;5.00;;;2.50;;
71413;SDS011;59226;53.212;5.728;2023-03-01T15:50:04;4.75;;;2.10;;
71413;SDS011;59226;53.212;5.728;2023-03-01T15:52:39;7.25;;;2.55;;
71413;SDS011;59226;53.212;5.728;2023-03-01T15:55:06;8.63;;;2.40;;
71413;SDS011;59226;53.212;5.728;2023-03-01T15:57:31;7.53;;;3.30;;
71413;SDS011;59226;53.212;5.728;2023-03-01T15:59:57;6.47;;;2.30;;
71413;SDS011;59226;53.212;5.728;2023-03-01T16:02:23;6.43;;;3.10;;
71413;SDS011;59226;53.212;5.728;2023-03-01T16:04:49;8.32;;;2.85;;
71413;SDS011;59226;53.212;5.728;2023-03-01T16:07:14;8.70;;;2.63;;
71413;SDS011;59226;53.212;5.728;2023-03-01T16:09:39;5.30;;;2.80;;
71413;SDS011;59226;53.212;5.728;2023-03-01T16:12:05;5.27;;;2.53;;
71413;SDS011;59226;53.212;5.728;2023-03-01T16:14:31;5.03;;;1.90;;
71413;SDS011;59226;53.212;5.728;2023-03-01T16:16:56;4.43;;;2.05;;
71413;SDS011;59226;53.212;5.728;2023-03-01T16:19:21;9.20;;;2.60;;
71413;SDS011;59226;53.212;5.728;2023-03-01T16:21:46;5.27;;;2.20;;
71413;SDS011;59226;53.212;5.728;2023-03-01T16:24:13;8.97;;;3.67;;
71413;SDS011;59226;53.212;5.728;2023-03-01T16:26:39;7.90;;;3.38;;
71413;SDS011;59226;53.212;5.728;2023-03-01T16:29:04;5.27;;;2.60;;
71413;SDS011;59226;53.212;5.728;2023-03-01T16:31:29;10.07;;;3.30;;
71413;SDS011;59226;53.212;5.728;2023-03-01T16:33:55;9.40;;;4.00;;
71413;SDS011;59226;53.212;5.728;2023-03-01T16:36:22;6.47;;;3.03;;
71413;SDS011;59226;53.212;5.728;2023-03-01T16:38:48;5.95;;;2.70;;
71413;SDS011;59226;53.212;5.728;2023-03-01T16:41:15;7.00;;;3.07;;
71413;SDS011;59226;53.212;5.728;2023-03-01T16:43:40;5.43;;;2.80;;